Time;durP1;ratioP1;P1;durP2;ratioP2;P2;SDS_P1;SDS_P2;PMS_P1;PMS_P2;Temp;Humidity;BMP_temperature;BMP_pressure;BME280_temperature;BME280_humidity;BME280_pressure;Samples;Min_cycle;Max_cycle;Signal;HPM_P1;HPM_P2
2023/10/29 00:01:51;;;;;;;0.52;0.52;;;10.40;99.90;;;;;;5035978;28;20216;-78
2023/10/29 00:04:18;;;;;;;0.60;0.60;;;10.40;99.90;;;;;;5032374;28;20478;-77
2023/10/29 00:06:45;;;;;;;0.40;0.40;;;10.40;99.90;;;;;;5020406;28;20234;-75
2023/10/29 00:09:14;;;;;;;1.00;1.00;;;10.40;99.90;;;;;;5021334;28;20501;-76
2023/10/29 00:11:40;;;;;;;1.25;1.25;;;10.40;99.90;;;;;;5026533;28;20213;-76
2023/10/29 00:14:08;;;;;;;1.48;1.38;;;10.40;99.90;;;;;;5015529;28;20210;-76
2023/10/29 00:16:34;;;;;;;0.50;0.50;;;10.40;99.90;;;;;;5015973;28;20283;-77
2023/10/29 00:19:02;;;;;;;1.25;0.80;;;10.40;99.90;;;;;;5014127;28;20210;-77
2023/10/29 00:21:30;;;;;;;0.65;0.65;;;10.50;99.90;;;;;;5032253;28;20204;-77
2023/10/29 00:23:57;;;;;;;1.23;1.20;;;10.40;99.90;;;;;;5036810;28;20276;-80
2023/10/29 00:26:24;;;;;;;0.50;0.50;;;10.70;99.90;;;;;;5019729;28;20217;-77
2023/10/29 00:28:51;;;;;;;0.73;0.73;;;10.40;99.90;;;;;;5031214;28;20275;-78
2023/10/29 00:31:18;;;;;;;0.40;0.40;;;10.30;99.90;;;;;;5031700;28;20213;-77
2023/10/29 00:33:46;;;;;;;0.60;0.60;;;10.30;99.90;;;;;;5036519;28;20255;-77
2023/10/29 00:36:13;;;;;;;1.52;1.42;;;10.10;99.90;;;;;;5033201;28;20264;-76
2023/10/29 00:38:40;;;;;;;2.30;2.20;;;10.10;99.90;;;;;;5032141;28;20189;-77
2023/10/29 00:41:07;;;;;;;0.40;0.40;;;10.00;99.90;;;;;;5035527;28;20193;-77
2023/10/29 00:43:40;;;;;;;1.35;1.13;;;9.90;99.90;;;;;;5040410;28;20270;-76
2023/10/29 00:46:08;;;;;;;1.55;1.45;;;9.80;99.90;;;;;;5042492;28;20260;-76
2023/10/29 00:48:36;;;;;;;1.52;1.45;;;9.70;99.90;;;;;;5039949;28;20244;-76
2023/10/29 00:51:04;;;;;;;0.45;0.45;;;9.60;99.90;;;;;;5033790;28;20277;-77
2023/10/29 00:53:31;;;;;;;5.60;1.10;;;9.60;99.90;;;;;;5018656;28;20206;-77
2023/10/29 00:56:00;;;;;;;0.40;0.40;;;9.40;99.90;;;;;;5022453;28;20279;-78
2023/10/29 00:58:28;;;;;;;2.80;2.65;;;9.30;99.90;;;;;;5031239;28;20276;-77
2023/10/29 01:00:55;;;;;;;0.60;0.60;;;9.30;99.90;;;;;;5019572;28;20217;-76
2023/10/29 01:03:22;;;;;;;0.70;0.70;;;9.30;99.90;;;;;;5019558;28;20627;-76
2023/10/29 01:05:50;;;;;;;1.02;1.02;;;9.10;99.90;;;;;;5024412;28;20212;-76
2023/10/29 01:08:19;;;;;;;0.40;0.40;;;9.10;99.90;;;;;;5020217;28;20588;-76
2023/10/29 01:10:46;;;;;;;1.42;1.33;;;8.90;99.90;;;;;;5019167;28;20275;-76
2023/10/29 01:13:14;;;;;;;0.40;0.40;;;8.80;99.90;;;;;;5018994;28;20232;-76
2023/10/29 01:15:41;;;;;;;0.65;0.65;;;8.80;99.90;;;;;;5017743;28;20212;-76
2023/10/29 01:18:08;;;;;;;0.73;0.73;;;8.80;99.90;;;;;;5023079;28;20232;-76
2023/10/29 01:20:35;;;;;;;0.40;0.40;;;8.70;99.90;;;;;;5022766;28;20279;-78
2023/10/29 01:23:02;;;;;;;0.50;0.50;;;8.70;99.90;;;;;;5024830;28;20237;-78
2023/10/29 01:25:29;;;;;;;0.85;0.85;;;8.80;99.90;;;;;;5023445;28;20216;-78
2023/10/29 01:27:56;;;;;;;0.40;0.40;;;8.80;99.90;;;;;;5019757;28;20299;-78
2023/10/29 01:30:25;;;;;;;1.35;1.35;;;8.90;99.90;;;;;;5018011;28;20429;-77
2023/10/29 01:32:51;;;;;;;1.52;1.45;;;9.00;99.90;;;;;;5024486;28;20223;-77
2023/10/29 01:35:19;;;;;;;0.50;0.50;;;9.20;99.90;;;;;;5020299;28;20219;-77
2023/10/29 01:37:45;;;;;;;1.05;0.85;;;9.30;99.90;;;;;;5018398;28;20214;-78
2023/10/29 01:40:13;;;;;;;0.30;0.30;;;9.30;99.90;;;;;;5019398;28;20220;-78
2023/10/29 01:42:40;;;;;;;1.23;1.17;;;9.40;99.90;;;;;;5026624;28;20269;-78
2023/10/29 01:45:07;;;;;;;0.60;0.60;;;9.30;99.90;;;;;;5025156;28;20256;-78
2023/10/29 01:47:34;;;;;;;2.63;2.53;;;9.30;99.90;;;;;;5036855;28;20285;-79
2023/10/29 01:50:01;;;;;;;0.40;0.40;;;9.50;99.90;;;;;;5040842;28;20232;-76
2023/10/29 01:52:28;;;;;;;0.40;0.40;;;9.70;99.90;;;;;;5025515;28;20289;-80
2023/10/29 01:54:57;;;;;;;0.40;0.40;;;9.60;99.90;;;;;;5035695;28;20230;-79
2023/10/29 01:57:24;;;;;;;0.50;0.50;;;9.60;99.90;;;;;;5024432;28;20269;-77
2023/10/29 01:59:51;;;;;;;0.40;0.40;;;9.60;99.90;;;;;;5021504;28;20201;-77
2023/10/29 02:02:18;;;;;;;0.52;0.52;;;9.60;99.90;;;;;;5023381;28;20268;-78
2023/10/29 02:04:45;;;;;;;0.75;0.75;;;9.60;99.90;;;;;;5015337;28;20759;-78
2023/10/29 02:07:12;;;;;;;0.40;0.40;;;9.70;99.90;;;;;;5017450;28;20237;-78
2023/10/29 02:09:40;;;;;;;0.70;0.70;;;9.80;99.90;;;;;;5014778;28;20214;-77
2023/10/29 02:12:07;;;;;;;0.55;0.55;;;9.80;99.90;;;;;;5021386;28;20216;-76
2023/10/29 02:14:36;;;;;;;0.63;0.63;;;9.80;99.90;;;;;;5025744;28;20571;-76
2023/10/29 02:17:04;;;;;;;0.50;0.50;;;9.80;99.90;;;;;;5019320;28;20287;-76
2023/10/29 02:19:31;;;;;;;0.70;0.70;;;9.90;99.90;;;;;;5037381;28;20281;-77
2023/10/29 02:21:58;;;;;;;1.52;1.42;;;9.90;99.90;;;;;;5036711;28;20446;-76
2023/10/29 02:24:26;;;;;;;1.75;1.58;;;9.80;99.90;;;;;;5027330;28;20219;-77
2023/10/29 02:26:53;;;;;;;0.80;0.80;;;9.80;99.90;;;;;;5019488;28;20304;-77
2023/10/29 02:29:20;;;;;;;0.40;0.40;;;9.80;99.90;;;;;;5026733;28;20287;-77
2023/10/29 02:31:47;;;;;;;1.05;1.05;;;9.80;99.90;;;;;;5026638;28;20210;-78
2023/10/29 02:34:14;;;;;;;0.40;0.40;;;9.80;99.90;;;;;;5032427;28;20482;-77
2023/10/29 02:36:41;;;;;;;0.60;0.60;;;9.80;99.90;;;;;;5029798;28;20556;-78
2023/10/29 02:39:08;;;;;;;0.50;0.50;;;9.80;99.90;;;;;;5026516;28;20509;-77
2023/10/29 02:41:35;;;;;;;1.15;1.08;;;9.90;99.90;;;;;;5033287;28;20275;-77
2023/10/29 02:44:03;;;;;;;0.40;0.40;;;9.90;99.90;;;;;;5028420;28;20252;-77
2023/10/29 02:46:30;;;;;;;0.50;0.50;;;9.90;99.90;;;;;;5022726;28;20300;-76
2023/10/29 02:48:57;;;;;;;0.50;0.50;;;9.90;99.90;;;;;;5031695;28;20237;-77
2023/10/29 02:51:24;;;;;;;0.60;0.60;;;9.90;99.90;;;;;;5028309;28;20213;-77
2023/10/29 02:53:51;;;;;;;0.50;0.50;;;10.00;99.90;;;;;;5017218;28;20216;-77
2023/10/29 02:56:18;;;;;;;0.50;0.50;;;10.10;99.90;;;;;;5024124;28;20209;-76
2023/10/29 02:58:45;;;;;;;0.98;0.95;;;10.00;99.90;;;;;;5017569;28;20825;-76
2023/10/29 03:01:15;;;;;;;0.40;0.40;;;10.10;99.90;;;;;;5017276;28;20417;-76
2023/10/29 03:03:44;;;;;;;0.93;0.93;;;10.10;99.90;;;;;;5028793;28;20721;-76
2023/10/29 03:06:12;;;;;;;0.65;0.65;;;9.90;99.90;;;;;;5033318;28;20212;-77
2023/10/29 03:08:38;;;;;;;0.88;0.88;;;10.00;99.90;;;;;;5023852;28;20846;-78
2023/10/29 03:11:06;;;;;;;0.57;0.57;;;9.90;99.90;;;;;;5029095;28;20271;-78
2023/10/29 03:13:32;;;;;;;1.25;1.25;;;10.00;99.90;;;;;;5034840;28;20264;-79
2023/10/29 03:16:00;;;;;;;0.40;0.40;;;10.00;99.90;;;;;;5035064;28;20273;-78
2023/10/29 03:18:29;;;;;;;0.50;0.50;;;10.00;99.90;;;;;;5035014;28;20225;-77
2023/10/29 03:20:56;;;;;;;0.85;0.85;;;10.10;99.90;;;;;;5016985;28;20205;-77
2023/10/29 03:23:24;;;;;;;1.55;1.45;;;10.10;99.90;;;;;;5018056;28;20201;-76
2023/10/29 03:25:51;;;;;;;4.82;1.38;;;10.00;99.90;;;;;;5015773;28;20248;-77
2023/10/29 03:28:18;;;;;;;0.50;0.50;;;10.00;99.90;;;;;;5024834;28;20462;-78
2023/10/29 03:30:45;;;;;;;3.50;1.23;;;10.10;99.90;;;;;;5021719;28;20251;-78
2023/10/29 03:33:12;;;;;;;0.40;0.40;;;10.20;99.90;;;;;;5019076;28;20228;-77
2023/10/29 03:35:39;;;;;;;2.92;2.67;;;10.30;99.90;;;;;;5014963;28;20586;-77
2023/10/29 03:38:07;;;;;;;0.40;0.40;;;10.30;99.90;;;;;;5017098;28;20213;-78
2023/10/29 03:40:36;;;;;;;8.68;1.77;;;10.30;99.90;;;;;;5023633;28;21469;-78
2023/10/29 03:43:03;;;;;;;0.60;0.60;;;10.20;99.90;;;;;;5015604;28;20206;-77
2023/10/29 03:45:30;;;;;;;0.40;0.40;;;10.40;99.90;;;;;;5029586;28;20228;-77
2023/10/29 03:47:57;;;;;;;0.40;0.40;;;10.30;99.90;;;;;;5042415;28;20283;-78
2023/10/29 03:50:24;;;;;;;0.60;0.60;;;10.20;99.90;;;;;;5026411;28;20209;-77
2023/10/29 03:52:52;;;;;;;0.50;0.50;;;10.20;99.90;;;;;;5017383;28;20542;-77
2023/10/29 03:55:19;;;;;;;0.50;0.50;;;10.10;99.90;;;;;;5026513;28;20454;-77
2023/10/29 03:57:46;;;;;;;0.40;0.40;;;9.90;99.90;;;;;;5021348;28;20458;-77
2023/10/29 04:00:13;;;;;;;0.50;0.50;;;9.80;99.90;;;;;;5021058;28;20276;-75
2023/10/29 04:02:41;;;;;;;0.40;0.40;;;9.70;99.90;;;;;;5019444;28;20273;-76
2023/10/29 04:05:08;;;;;;;4.10;1.95;;;9.70;99.90;;;;;;5016219;28;20204;-76
2023/10/29 04:07:37;;;;;;;0.95;0.95;;;9.70;99.90;;;;;;5016994;28;20233;-76
2023/10/29 04:10:04;;;;;;;0.40;0.40;;;9.70;99.90;;;;;;5016314;28;20276;-79
2023/10/29 04:12:32;;;;;;;0.40;0.40;;;9.60;99.90;;;;;;5026985;28;20209;-77
2023/10/29 04:15:00;;;;;;;0.50;0.50;;;9.60;99.90;;;;;;5034818;28;20205;-77
2023/10/29 04:17:27;;;;;;;0.50;0.50;;;9.40;99.90;;;;;;5016602;28;20479;-78
2023/10/29 04:19:54;;;;;;;0.40;0.40;;;9.40;99.90;;;;;;5022096;28;20208;-82
2023/10/29 04:22:22;;;;;;;0.40;0.40;;;9.40;99.90;;;;;;5027832;28;20211;-77
2023/10/29 04:24:50;;;;;;;1.88;1.30;;;9.40;99.90;;;;;;5025672;28;20209;-77
2023/10/29 04:27:17;;;;;;;1.27;1.25;;;9.60;99.90;;;;;;5020326;28;20198;-80
2023/10/29 04:29:44;;;;;;;1.25;1.23;;;9.50;99.90;;;;;;5029190;28;20205;-76
2023/10/29 04:32:12;;;;;;;0.63;0.63;;;9.60;99.90;;;;;;5033600;28;20264;-78
2023/10/29 04:34:39;;;;;;;0.40;0.40;;;9.60;99.90;;;;;;5020336;28;20284;-77
2023/10/29 04:37:07;;;;;;;0.50;0.50;;;9.50;99.90;;;;;;5025804;28;20677;-78
2023/10/29 04:39:34;;;;;;;0.40;0.40;;;9.50;99.90;;;;;;5024615;28;20213;-77
2023/10/29 04:42:01;;;;;;;0.50;0.50;;;9.50;99.90;;;;;;5023481;28;20238;-79
2023/10/29 04:44:28;;;;;;;0.50;0.50;;;9.30;99.90;;;;;;5012635;28;20234;-79
2023/10/29 04:46:55;;;;;;;0.40;0.40;;;9.30;99.90;;;;;;5024478;28;20201;-79
2023/10/29 04:49:22;;;;;;;0.60;0.60;;;9.40;99.90;;;;;;5028504;28;20221;-79
2023/10/29 04:51:49;;;;;;;0.50;0.50;;;9.60;99.90;;;;;;5020603;28;20216;-79
2023/10/29 04:54:16;;;;;;;0.40;0.40;;;9.70;99.90;;;;;;5026269;28;20197;-78
2023/10/29 04:56:43;;;;;;;0.40;0.40;;;9.60;99.90;;;;;;5035689;28;20331;-78
2023/10/29 04:59:10;;;;;;;0.50;0.50;;;9.60;99.90;;;;;;5027008;28;20265;-82
2023/10/29 05:01:37;;;;;;;0.40;0.40;;;9.70;99.90;;;;;;5027850;28;20212;-79
2023/10/29 05:04:04;;;;;;;0.70;0.70;;;9.80;99.90;;;;;;5027603;28;20225;-77
2023/10/29 05:06:31;;;;;;;0.73;0.73;;;9.80;99.90;;;;;;5011358;28;20245;-78
2023/10/29 05:08:58;;;;;;;0.60;0.60;;;9.90;99.90;;;;;;5014498;28;20233;-77
2023/10/29 05:11:25;;;;;;;0.98;0.98;;;9.80;99.90;;;;;;5033219;28;20216;-79
2023/10/29 05:13:53;;;;;;;0.50;0.50;;;9.80;99.90;;;;;;5011183;28;20236;-79
2023/10/29 05:16:20;;;;;;;0.73;0.73;;;9.90;99.90;;;;;;5031119;28;20244;-79
2023/10/29 05:18:48;;;;;;;1.20;1.10;;;9.80;99.90;;;;;;5024651;28;20205;-78
2023/10/29 05:21:14;;;;;;;0.40;0.40;;;9.90;99.90;;;;;;5030346;28;20208;-77
2023/10/29 05:23:41;;;;;;;0.40;0.40;;;9.90;99.90;;;;;;5027704;28;20212;-77
2023/10/29 05:26:08;;;;;;;0.40;0.40;;;9.90;99.90;;;;;;5021411;28;20210;-77
2023/10/29 05:28:36;;;;;;;0.40;0.40;;;9.90;99.90;;;;;;5019064;28;20300;-77
2023/10/29 05:31:02;;;;;;;0.60;0.60;;;9.90;99.90;;;;;;5031896;28;20250;-76
2023/10/29 05:33:30;;;;;;;1.80;1.70;;;10.00;99.90;;;;;;5022926;28;20243;-77
2023/10/29 05:35:57;;;;;;;0.50;0.50;;;9.90;99.90;;;;;;5019882;28;20205;-77
2023/10/29 05:38:24;;;;;;;0.40;0.40;;;9.90;99.90;;;;;;5018997;28;20486;-77
2023/10/29 05:40:51;;;;;;;0.50;0.50;;;9.80;99.90;;;;;;5019379;28;20777;-76
2023/10/29 05:43:19;;;;;;;0.50;0.50;;;9.80;99.90;;;;;;5019729;28;20214;-77
2023/10/29 05:45:45;;;;;;;0.40;0.40;;;9.80;99.90;;;;;;5019855;28;20301;-76
2023/10/29 05:48:13;;;;;;;1.10;1.10;;;9.80;99.90;;;;;;5020075;28;20221;-77
2023/10/29 05:50:40;;;;;;;0.40;0.40;;;9.70;99.90;;;;;;5032238;28;20209;-81
2023/10/29 05:53:07;;;;;;;1.00;1.00;;;9.80;99.90;;;;;;5027111;28;20243;-81
2023/10/29 05:55:35;;;;;;;0.50;0.50;;;9.60;99.90;;;;;;5027814;28;20791;-79
2023/10/29 05:58:02;;;;;;;0.40;0.40;;;9.70;99.90;;;;;;5025158;28;20198;-86
2023/10/29 06:00:30;;;;;;;0.90;0.70;;;9.50;99.90;;;;;;5021790;28;20495;-83
2023/10/29 06:02:56;;;;;;;1.27;1.17;;;9.50;99.90;;;;;;5029344;28;20188;-79
2023/10/29 06:05:24;;;;;;;0.43;0.43;;;9.60;99.90;;;;;;5045039;28;20229;-77
2023/10/29 06:07:51;;;;;;;1.73;1.60;;;9.60;99.90;;;;;;5020868;28;20240;-79
2023/10/29 06:10:18;;;;;;;0.50;0.50;;;9.60;99.90;;;;;;5021218;28;20236;-79
2023/10/29 06:12:45;;;;;;;6.47;2.53;;;9.60;99.90;;;;;;5029066;28;20643;-78
2023/10/29 06:15:12;;;;;;;0.40;0.40;;;9.60;99.90;;;;;;5020460;28;20208;-82
2023/10/29 06:17:41;;;;;;;0.47;0.47;;;9.60;99.90;;;;;;5026956;28;20216;-77
2023/10/29 06:20:10;;;;;;;0.50;0.50;;;9.70;99.90;;;;;;5026291;28;20285;-84
2023/10/29 06:22:37;;;;;;;0.40;0.40;;;9.80;99.90;;;;;;5019305;28;20663;-76
2023/10/29 06:25:05;;;;;;;0.40;0.40;;;9.90;99.90;;;;;;5020474;28;20205;-83
2023/10/29 06:27:32;;;;;;;0.50;0.50;;;9.90;99.90;;;;;;5019689;28;20206;-80
2023/10/29 06:29:59;;;;;;;1.08;0.98;;;9.90;99.90;;;;;;5019764;28;20237;-79
2023/10/29 06:32:26;;;;;;;0.50;0.50;;;10.00;99.90;;;;;;5020334;28;20210;-78
2023/10/29 06:34:54;;;;;;;0.40;0.40;;;10.00;99.90;;;;;;5028859;28;20627;-79
2023/10/29 06:37:20;;;;;;;0.40;0.40;;;10.00;99.90;;;;;;5012745;28;20205;-77
2023/10/29 06:39:48;;;;;;;0.40;0.40;;;10.00;99.90;;;;;;5028322;28;20493;-82
2023/10/29 06:42:15;;;;;;;0.98;0.98;;;10.00;99.90;;;;;;5027807;28;20248;-84
2023/10/29 06:44:41;;;;;;;0.63;0.63;;;10.10;99.90;;;;;;5020298;28;20216;-78
2023/10/29 06:47:09;;;;;;;0.52;0.52;;;10.10;99.90;;;;;;5019200;28;20207;-77
2023/10/29 06:49:35;;;;;;;0.40;0.40;;;10.10;99.90;;;;;;5028023;28;20229;-78
2023/10/29 06:52:03;;;;;;;4.68;4.13;;;10.10;99.90;;;;;;5017242;28;20198;-77
2023/10/29 06:54:30;;;;;;;0.40;0.40;;;10.10;99.90;;;;;;5018097;28;20206;-77
2023/10/29 06:56:58;;;;;;;0.50;0.50;;;10.20;99.90;;;;;;5025694;28;20423;-79
2023/10/29 06:59:30;;;;;;;1.33;1.27;;;10.20;99.90;;;;;;5038393;28;20197;-78
2023/10/29 07:01:59;;;;;;;1.05;1.05;;;10.20;99.90;;;;;;5037157;28;20192;-77
2023/10/29 07:04:26;;;;;;;2.17;2.05;;;10.30;99.90;;;;;;5042975;28;20368;-78
2023/10/29 07:06:53;;;;;;;0.50;0.50;;;10.90;99.90;;;;;;5023418;28;20489;-81
2023/10/29 07:09:21;;;;;;;0.77;0.77;;;11.90;99.90;;;;;;5019420;28;20328;-78
2023/10/29 07:11:47;;;;;;;0.50;0.50;;;12.40;99.90;;;;;;5021526;28;20506;-77
2023/10/29 07:14:15;;;;;;;0.40;0.40;;;12.30;99.90;;;;;;5021761;28;20206;-79
2023/10/29 07:16:45;;;;;;;0.50;0.50;;;14.30;99.90;;;;;;5021614;28;20201;-77
2023/10/29 07:19:12;;;;;;;0.43;0.43;;;14.30;99.90;;;;;;5025414;28;20753;-79
2023/10/29 07:21:40;;;;;;;0.65;0.65;;;12.90;99.90;;;;;;5028237;28;20209;-81
2023/10/29 07:24:07;;;;;;;0.50;0.50;;;11.90;99.90;;;;;;5017846;28;20276;-77
2023/10/29 07:26:34;;;;;;;0.88;0.88;;;11.60;99.90;;;;;;5019050;28;20301;-81
2023/10/29 07:29:02;;;;;;;0.60;0.60;;;11.40;99.90;;;;;;5027346;28;20232;-81
2023/10/29 07:31:31;;;;;;;2.80;2.33;;;11.50;99.90;;;;;;5030202;28;20447;-79
2023/10/29 07:33:59;;;;;;;0.70;0.70;;;11.60;99.90;;;;;;5013082;28;20244;-78
2023/10/29 07:36:26;;;;;;;0.50;0.50;;;12.90;99.90;;;;;;5024224;28;20209;-80
2023/10/29 07:38:53;;;;;;;0.50;0.50;;;13.00;99.90;;;;;;5021454;28;20512;-78
2023/10/29 07:41:21;;;;;;;0.50;0.50;;;13.10;99.90;;;;;;5030163;28;20205;-78
2023/10/29 07:43:49;;;;;;;0.50;0.50;;;14.20;99.90;;;;;;5017610;28;20406;-84
2023/10/29 07:46:16;;;;;;;0.50;0.50;;;15.40;99.90;;;;;;5025512;28;20276;-82
2023/10/29 07:48:43;;;;;;;0.60;0.60;;;16.20;99.90;;;;;;5025171;28;20612;-80
2023/10/29 07:51:10;;;;;;;0.60;0.60;;;15.90;99.90;;;;;;5020791;28;20497;-79
2023/10/29 07:53:37;;;;;;;0.50;0.50;;;15.40;99.90;;;;;;5024470;28;20733;-78
2023/10/29 07:56:13;;;;;;;0.50;0.50;;;14.30;99.90;;;;;;5024313;28;20526;-81
2023/10/29 07:58:40;;;;;;;0.60;0.60;;;14.10;99.90;;;;;;5027056;28;20775;-78
2023/10/29 08:01:12;;;;;;;0.53;0.53;;;14.00;99.90;;;;;;5027226;28;20499;-87
2023/10/29 08:03:40;;;;;;;0.50;0.50;;;14.50;99.90;;;;;;5026814;28;20840;-83
2023/10/29 08:06:09;;;;;;;0.73;0.73;;;14.60;99.90;;;;;;5027341;28;20421;-81
2023/10/29 08:08:36;;;;;;;0.60;0.60;;;15.00;99.90;;;;;;5025266;28;20474;-80
2023/10/29 08:11:03;;;;;;;0.50;0.50;;;15.40;99.90;;;;;;5031799;28;20420;-81
2023/10/29 08:13:30;;;;;;;0.50;0.50;;;16.00;99.90;;;;;;5021704;28;20653;-81
2023/10/29 08:16:02;;;;;;;0.60;0.60;;;16.90;99.90;;;;;;5019904;28;21153;-79
2023/10/29 08:18:29;;;;;;;0.50;0.50;;;16.60;99.90;;;;;;5020110;28;20684;-82
2023/10/29 08:20:56;;;;;;;1.20;1.10;;;16.00;99.90;;;;;;5022894;28;20425;-79
2023/10/29 08:23:23;;;;;;;3.50;2.30;;;16.20;99.90;;;;;;5020473;28;20512;-80
2023/10/29 08:25:50;;;;;;;0.60;0.60;;;16.90;99.90;;;;;;5018609;28;20432;-84
2023/10/29 08:28:18;;;;;;;0.60;0.60;;;15.80;99.90;;;;;;5020706;28;20409;-81
2023/10/29 08:30:49;;;;;;;0.53;0.53;;;15.60;99.90;;;;;;5031388;28;20500;-80
2023/10/29 08:33:17;;;;;;;0.70;0.70;;;15.20;99.90;;;;;;5013206;28;20439;-80
2023/10/29 08:35:45;;;;;;;0.70;0.70;;;14.80;99.90;;;;;;5024826;28;20433;-85
2023/10/29 08:38:12;;;;;;;0.50;0.50;;;14.50;99.90;;;;;;5022820;28;20413;-80
2023/10/29 08:40:39;;;;;;;0.60;0.60;;;14.20;99.90;;;;;;5018085;28;20759;-82
2023/10/29 08:43:07;;;;;;;0.80;0.80;;;14.20;99.90;;;;;;5027692;28;20473;-83
2023/10/29 08:45:34;;;;;;;0.80;0.80;;;14.30;99.90;;;;;;5024655;28;20502;-80
2023/10/29 08:48:08;;;;;;;0.60;0.60;;;14.40;99.90;;;;;;5020180;28;20538;-84
2023/10/29 08:50:35;;;;;;;0.60;0.60;;;14.20;99.90;;;;;;5019816;28;20542;-83
2023/10/29 08:53:03;;;;;;;0.60;0.60;;;14.00;99.90;;;;;;5024796;28;20488;-85
2023/10/29 08:55:30;;;;;;;0.60;0.60;;;14.10;99.90;;;;;;5022476;28;20518;-80
2023/10/29 08:57:57;;;;;;;0.70;0.70;;;14.10;99.90;;;;;;5022770;28;20478;-80
2023/10/29 09:00:24;;;;;;;0.60;0.60;;;14.40;99.90;;;;;;5021596;28;20497;-78
2023/10/29 09:03:00;;;;;;;0.50;0.50;;;14.80;99.90;;;;;;5022219;28;20525;-83
2023/10/29 09:05:28;;;;;;;0.50;0.50;;;14.70;99.90;;;;;;5031542;28;20468;-77
2023/10/29 09:07:55;;;;;;;1.37;1.30;;;14.70;99.90;;;;;;5016303;28;20475;-80
2023/10/29 09:10:22;;;;;;;0.50;0.50;;;14.80;99.90;;;;;;5022003;28;20485;-84
2023/10/29 09:12:49;;;;;;;0.50;0.50;;;15.10;99.90;;;;;;5023805;28;20447;-81
2023/10/29 09:15:16;;;;;;;0.70;0.70;;;15.20;99.90;;;;;;5024428;28;20469;-80
2023/10/29 09:17:43;;;;;;;0.60;0.60;;;15.20;99.90;;;;;;5022598;28;20470;-87
2023/10/29 09:20:12;;;;;;;0.70;0.70;;;15.40;99.90;;;;;;5024372;28;20462;-81
2023/10/29 09:22:39;;;;;;;3.13;3.03;;;15.30;99.90;;;;;;5019439;28;20440;-83
2023/10/29 09:25:06;;;;;;;0.60;0.60;;;15.20;99.90;;;;;;5027262;28;20484;-82
2023/10/29 09:27:33;;;;;;;0.60;0.60;;;15.10;99.90;;;;;;5033094;28;20525;-80
2023/10/29 09:30:01;;;;;;;0.50;0.50;;;15.10;99.90;;;;;;5016688;28;20505;-87
2023/10/29 09:32:28;;;;;;;2.60;2.40;;;15.10;99.90;;;;;;5019526;28;20426;-83
2023/10/29 09:34:55;;;;;;;1.00;1.00;;;15.10;99.90;;;;;;5022809;28;20460;-80
2023/10/29 09:37:22;;;;;;;0.60;0.60;;;15.40;99.90;;;;;;5029952;28;20449;-83
2023/10/29 09:39:48;;;;;;;0.60;0.60;;;15.40;99.90;;;;;;5033445;28;20480;-84
2023/10/29 09:42:18;;;;;;;1.43;1.43;;;15.40;99.90;;;;;;5042555;28;20448;-82
2023/10/29 09:44:47;;;;;;;0.60;0.60;;;15.20;99.90;;;;;;5044564;28;20649;-82
2023/10/29 09:47:17;;;;;;;1.83;1.73;;;14.90;99.90;;;;;;5040221;28;20425;-80
2023/10/29 09:49:44;;;;;;;0.67;0.67;;;14.90;99.90;;;;;;5026377;28;20475;-82
2023/10/29 09:52:13;;;;;;;0.90;0.90;;;14.80;99.90;;;;;;5029359;28;20747;-82
2023/10/29 09:54:40;;;;;;;0.50;0.50;;;14.90;99.90;;;;;;5023985;28;20518;-88
2023/10/29 09:57:07;;;;;;;0.60;0.60;;;14.90;99.90;;;;;;5029624;28;20449;-83
2023/10/29 09:59:35;;;;;;;4.20;3.90;;;15.00;99.90;;;;;;5026197;28;20667;-79
2023/10/29 10:02:03;;;;;;;0.60;0.60;;;14.90;99.90;;;;;;5024447;28;20467;-78
2023/10/29 10:04:30;;;;;;;1.07;1.07;;;15.10;99.90;;;;;;5022357;28;20421;-81
2023/10/29 10:07:00;;;;;;;0.57;0.57;;;15.10;99.90;;;;;;5020866;28;20622;-79
2023/10/29 10:09:47;;;;;;;0.97;0.97;;;15.10;99.90;;;;;;5019835;28;20478;-86
2023/10/29 10:12:14;;;;;;;0.60;0.60;;;15.10;99.90;;;;;;5016011;28;20479;-84
2023/10/29 10:14:41;;;;;;;1.00;0.97;;;15.20;99.90;;;;;;5029935;28;20508;-82
2023/10/29 10:17:10;;;;;;;0.60;0.60;;;15.20;99.90;;;;;;5023653;28;20662;-83
2023/10/29 10:19:37;;;;;;;2.53;2.43;;;15.20;99.90;;;;;;5027951;28;20443;-81
2023/10/29 10:22:04;;;;;;;0.70;0.70;;;15.30;99.90;;;;;;5019465;28;20481;-79
2023/10/29 10:24:43;;;;;;;1.43;1.43;;;15.40;99.90;;;;;;5016769;28;20471;-81
2023/10/29 10:27:14;;;;;;;0.60;0.60;;;15.60;99.90;;;;;;5017696;28;20425;-83
2023/10/29 10:29:42;;;;;;;0.60;0.60;;;15.50;99.90;;;;;;5021504;28;20570;-79
2023/10/29 10:32:11;;;;;;;1.07;1.07;;;15.30;99.90;;;;;;5027389;28;20465;-80
2023/10/29 10:34:50;;;;;;;0.50;0.50;;;15.30;99.90;;;;;;5026026;28;20504;-79
2023/10/29 10:37:18;;;;;;;0.50;0.50;;;15.20;99.90;;;;;;5023498;28;20425;-82
2023/10/29 10:39:46;;;;;;;0.50;0.50;;;15.20;99.90;;;;;;5022513;28;20545;-85
2023/10/29 10:42:23;;;;;;;0.60;0.60;;;15.40;99.90;;;;;;5030502;28;20667;-82
2023/10/29 10:44:54;;;;;;;0.70;0.70;;;15.50;99.90;;;;;;5024456;28;20531;-85
2023/10/29 10:47:21;;;;;;;1.53;1.43;;;15.40;99.90;;;;;;5029750;28;20413;-85
2023/10/29 10:49:49;;;;;;;0.50;0.50;;;15.80;99.90;;;;;;5022855;28;20562;-86
2023/10/29 10:52:17;;;;;;;4.00;3.10;;;16.20;99.90;;;;;;5017905;28;20513;-82
2023/10/29 10:54:45;;;;;;;0.60;0.60;;;16.50;99.90;;;;;;5026204;28;20489;-85
2023/10/29 10:57:13;;;;;;;0.70;0.70;;;16.70;99.90;;;;;;5020355;28;20442;-85
2023/10/29 10:59:41;;;;;;;0.60;0.60;;;16.80;99.90;;;;;;5038427;28;20431;-85
2023/10/29 11:02:12;;;;;;;1.10;1.10;;;16.70;99.90;;;;;;5025747;28;20422;-82
2023/10/29 11:04:41;;;;;;;0.50;0.50;;;16.70;99.90;;;;;;5037653;28;20437;-81
2023/10/29 11:07:09;;;;;;;0.60;0.60;;;16.50;99.90;;;;;;5033855;28;20768;-82
2023/10/29 11:09:37;;;;;;;1.67;1.57;;;16.60;99.90;;;;;;5031382;28;20474;-83
2023/10/29 11:12:05;;;;;;;0.60;0.60;;;16.40;99.90;;;;;;5011024;28;20446;-84
2023/10/29 11:14:33;;;;;;;0.87;0.87;;;16.40;99.90;;;;;;5038240;28;20423;-88
2023/10/29 11:17:00;;;;;;;0.93;0.93;;;16.40;99.90;;;;;;5033523;28;20440;-84
2023/10/29 11:19:44;;;;;;;0.50;0.50;;;16.60;99.90;;;;;;5016757;28;20482;-81
2023/10/29 11:22:18;;;;;;;1.23;1.17;;;16.70;99.90;;;;;;5018632;28;20442;-79
2023/10/29 11:25:14;;;;;;;0.50;0.50;;;16.50;99.90;;;;;;5045489;28;20409;-83
2023/10/29 11:27:45;;;;;;;0.83;0.83;;;16.40;99.90;;;;;;5036274;28;20671;-87
2023/10/29 11:30:26;;;;;;;0.50;0.50;;;16.20;99.90;;;;;;5032823;28;20450;-88
2023/10/29 11:33:17;;;;;;;1.03;1.03;;;16.10;99.90;;;;;;5035656;28;20766;-83
2023/10/29 11:35:45;;;;;;;0.57;0.57;;;16.00;99.90;;;;;;5039710;28;20477;-85
2023/10/29 11:38:40;;;;;;;0.60;0.60;;;16.00;99.90;;;;;;5030295;28;20465;-85
2023/10/29 11:41:35;;;;;;;1.77;1.53;;;16.00;99.90;;;;;;5028018;28;20429;-86
2023/10/29 11:44:22;;;;;;;0.60;0.60;;;16.00;99.90;;;;;;5029785;28;20639;-81
2023/10/29 11:46:56;;;;;;;1.67;1.57;;;16.00;99.90;;;;;;5025944;28;20435;-85
2023/10/29 11:49:24;;;;;;;0.50;0.50;;;16.00;99.90;;;;;;5021718;28;20444;-85
2023/10/29 11:51:57;;;;;;;0.73;0.73;;;16.10;99.90;;;;;;5038847;28;20706;-82
2023/10/29 11:54:25;;;;;;;0.50;0.50;;;16.20;99.90;;;;;;5025053;28;20406;-87
2023/10/29 11:56:52;;;;;;;1.93;1.37;;;16.30;99.90;;;;;;5043832;28;20456;-83
2023/10/29 11:59:19;;;;;;;0.83;0.83;;;16.30;99.90;;;;;;5029812;28;20451;-87
2023/10/29 12:01:46;;;;;;;0.50;0.50;;;16.40;99.90;;;;;;5025886;28;20454;-83
2023/10/29 12:04:13;;;;;;;1.60;1.50;;;16.30;99.90;;;;;;5034943;28;20478;-85
2023/10/29 12:06:46;;;;;;;0.83;0.83;;;16.30;99.90;;;;;;5023541;28;20422;-81
2023/10/29 12:09:24;;;;;;;1.00;1.00;;;16.50;99.90;;;;;;5026715;28;20922;-88
2023/10/29 12:11:53;;;;;;;0.60;0.60;;;16.70;99.90;;;;;;5017279;28;20792;-83
2023/10/29 12:14:46;;;;;;;0.50;0.50;;;16.90;99.90;;;;;;5032505;28;20669;-82
2023/10/29 12:17:14;;;;;;;0.80;0.80;;;17.00;99.90;;;;;;5012394;28;20418;-83
2023/10/29 12:19:44;;;;;;;0.77;0.77;;;17.00;99.90;;;;;;5010128;28;20452;-86
2023/10/29 12:22:16;;;;;;;0.50;0.50;;;17.00;99.90;;;;;;5029131;28;20421;-89
2023/10/29 12:24:44;;;;;;;0.63;0.63;;;17.10;99.90;;;;;;5028209;28;20557;-82
2023/10/29 12:27:11;;;;;;;0.60;0.60;;;17.10;99.90;;;;;;5021259;28;20838;-84
2023/10/29 12:29:38;;;;;;;0.70;0.70;;;17.10;99.90;;;;;;5030380;28;20425;-85
2023/10/29 12:32:13;;;;;;;1.43;1.33;;;17.10;99.90;;;;;;5024688;28;20458;-82
2023/10/29 12:34:51;;;;;;;0.70;0.70;;;17.10;99.90;;;;;;5030053;28;20945;-83
2023/10/29 12:37:21;;;;;;;0.83;0.83;;;17.30;99.90;;;;;;5018437;28;20442;-84
2023/10/29 12:39:52;;;;;;;0.50;0.50;;;17.30;99.90;;;;;;5027552;28;20559;-80
2023/10/29 12:42:21;;;;;;;1.73;1.00;;;17.30;99.90;;;;;;5028426;28;20484;-84
2023/10/29 12:44:54;;;;;;;0.57;0.57;;;17.10;99.90;;;;;;5033259;28;20421;-86
2023/10/29 12:47:22;;;;;;;0.60;0.60;;;16.90;99.90;;;;;;5035565;28;20617;-82
2023/10/29 12:50:04;;;;;;;0.50;0.50;;;16.80;99.90;;;;;;5029307;28;20492;-83
2023/10/29 12:52:31;;;;;;;0.60;0.60;;;16.60;99.90;;;;;;5026157;28;20485;-80
2023/10/29 12:54:58;;;;;;;0.93;0.93;;;16.60;99.90;;;;;;5038082;28;20453;-86
2023/10/29 12:57:25;;;;;;;0.60;0.60;;;16.50;99.90;;;;;;5030254;28;20438;-83